createdAt,value
2022-10-17T00:00:32.478Z,16.63
2022-10-17T00:02:58.979Z,16.59
2022-10-17T00:05:25.324Z,16.62
2022-10-17T00:07:52.757Z,16.63
2022-10-17T00:10:20.614Z,16.62
2022-10-17T00:12:47.184Z,16.64
2022-10-17T00:15:18.844Z,16.63
2022-10-17T00:17:45.611Z,16.64
2022-10-17T00:20:12.858Z,16.61
2022-10-17T00:22:39.678Z,16.62
2022-10-17T00:25:06.392Z,16.62
2022-10-17T00:27:40.980Z,16.62
2022-10-17T00:30:11.679Z,16.63
2022-10-17T00:32:38.139Z,16.63
2022-10-17T00:35:05.000Z,16.64
2022-10-17T00:37:32.243Z,16.63
2022-10-17T00:39:58.947Z,16.65
2022-10-17T00:42:27.134Z,16.65
2022-10-17T00:45:11.296Z,16.64
2022-10-17T00:47:37.986Z,16.66
2022-10-17T00:50:07.396Z,16.66
2022-10-17T00:52:34.286Z,16.67
2022-10-17T00:55:11.307Z,16.65
2022-10-17T00:57:39.380Z,16.66
2022-10-17T01:00:09.923Z,16.65
2022-10-17T01:02:37.645Z,16.65
2022-10-17T01:05:05.041Z,16.66
2022-10-17T01:07:37.164Z,16.67
2022-10-17T01:10:06.062Z,16.68
2022-10-17T01:12:51.874Z,16.67
2022-10-17T01:15:32.851Z,16.68
2022-10-17T01:18:24.127Z,16.69
2022-10-17T01:21:17.141Z,16.69
2022-10-17T01:24:16.383Z,16.69
2022-10-17T01:27:02.687Z,16.69
2022-10-17T01:29:55.070Z,16.68
2022-10-17T01:32:25.332Z,16.69
2022-10-17T01:34:59.252Z,16.69
2022-10-17T01:37:47.197Z,16.68
2022-10-17T01:40:39.376Z,16.70
2022-10-17T01:43:18.056Z,16.71
2022-10-17T01:45:53.480Z,16.73
2022-10-17T01:48:24.313Z,16.73
2022-10-17T01:51:00.740Z,16.71
2022-10-17T01:53:33.610Z,16.74
2022-10-17T01:56:04.640Z,16.73
2022-10-17T01:58:46.183Z,16.74
2022-10-17T02:01:13.306Z,16.76
2022-10-17T02:03:43.659Z,16.74
2022-10-17T02:06:10.026Z,16.74
2022-10-17T02:08:45.633Z,16.73
2022-10-17T02:11:17.582Z,16.73
2022-10-17T02:14:20.889Z,16.73
2022-10-17T02:17:17.893Z,16.74
2022-10-17T02:20:15.621Z,16.76
2022-10-17T02:23:02.838Z,16.79
2022-10-17T02:25:45.775Z,16.78
2022-10-17T02:28:39.298Z,16.79
2022-10-17T02:31:26.323Z,16.81
2022-10-17T02:34:01.740Z,16.85
2022-10-17T02:36:35.004Z,16.84
2022-10-17T02:39:03.015Z,16.84
2022-10-17T02:41:31.416Z,16.85
2022-10-17T02:44:00.199Z,16.84
2022-10-17T02:46:30.530Z,16.84
2022-10-17T02:49:05.359Z,16.84
2022-10-17T02:51:45.197Z,16.82
2022-10-17T02:54:26.983Z,16.85
2022-10-17T02:56:59.298Z,16.89
2022-10-17T02:59:28.582Z,16.89
2022-10-17T03:01:55.434Z,16.89
2022-10-17T03:04:21.964Z,16.90
2022-10-17T03:06:49.058Z,16.89
2022-10-17T03:09:16.022Z,16.87
2022-10-17T03:11:42.590Z,16.87
2022-10-17T03:14:09.001Z,16.89
2022-10-17T03:16:36.383Z,16.90
2022-10-17T03:19:03.900Z,16.90
2022-10-17T03:21:31.290Z,16.92
2022-10-17T03:23:57.775Z,16.91
2022-10-17T03:26:24.474Z,16.92
2022-10-17T03:28:53.662Z,16.91
2022-10-17T03:31:22.702Z,16.90
2022-10-17T03:33:50.143Z,16.89
2022-10-17T03:36:18.604Z,16.88
2022-10-17T03:38:46.711Z,16.87
2022-10-17T03:41:13.219Z,16.89
2022-10-17T03:43:40.192Z,16.90
2022-10-17T03:46:07.675Z,16.90
2022-10-17T03:48:34.697Z,16.91
2022-10-17T03:51:05.193Z,16.90
2022-10-17T03:53:34.319Z,16.90
2022-10-17T03:56:18.206Z,16.84
2022-10-17T03:58:51.130Z,16.84
2022-10-17T04:01:19.529Z,16.79
2022-10-17T04:03:54.276Z,16.78
2022-10-17T04:06:21.527Z,16.76
2022-10-17T04:08:48.376Z,16.73
2022-10-17T04:11:21.833Z,16.72
2022-10-17T04:13:54.514Z,16.72
2022-10-17T04:16:22.933Z,16.71
2022-10-17T04:19:04.826Z,16.71
2022-10-17T04:21:37.785Z,16.70
2022-10-17T04:24:06.911Z,16.67
2022-10-17T04:26:43.742Z,16.67
2022-10-17T04:29:10.829Z,16.65
2022-10-17T04:31:37.984Z,16.65
2022-10-17T04:34:15.288Z,16.63
2022-10-17T04:36:42.137Z,16.58
2022-10-17T04:39:08.874Z,16.59
2022-10-17T04:41:35.975Z,16.60
2022-10-17T04:44:02.687Z,16.57
2022-10-17T04:46:34.148Z,16.56
2022-10-17T04:49:00.588Z,16.54
2022-10-17T04:51:27.604Z,16.53
2022-10-17T04:54:23.113Z,16.54
2022-10-17T04:56:56.495Z,16.53
2022-10-17T04:59:22.972Z,16.52
2022-10-17T05:01:56.520Z,16.50
2022-10-17T05:04:24.897Z,16.47
2022-10-17T05:06:52.694Z,16.46
2022-10-17T05:09:39.016Z,16.44
2022-10-17T05:12:08.104Z,16.42
2022-10-17T05:14:38.238Z,16.40
2022-10-17T05:17:04.898Z,16.40
2022-10-17T05:19:31.374Z,16.37
2022-10-17T05:21:58.475Z,16.35
2022-10-17T05:24:25.011Z,16.34
2022-10-17T05:26:52.026Z,16.30
2022-10-17T05:29:19.057Z,16.27
2022-10-17T05:31:50.897Z,16.27
2022-10-17T05:34:17.833Z,16.26
2022-10-17T05:36:44.726Z,16.25
2022-10-17T05:39:14.771Z,16.25
2022-10-17T05:41:41.631Z,16.25
2022-10-17T05:44:08.147Z,16.24
2022-10-17T05:46:40.079Z,16.24
2022-10-17T05:49:15.014Z,16.23
2022-10-17T05:51:53.484Z,16.25
2022-10-17T05:54:20.508Z,16.21
2022-10-17T05:56:52.205Z,16.19
2022-10-17T05:59:20.612Z,16.19
2022-10-17T06:01:54.544Z,16.19
2022-10-17T06:04:21.060Z,16.14
2022-10-17T06:06:47.626Z,16.13
2022-10-17T06:09:14.090Z,16.09
2022-10-17T06:11:44.288Z,16.11
2022-10-17T06:14:11.848Z,16.12
2022-10-17T06:16:40.046Z,16.13
2022-10-17T06:19:06.710Z,16.14
2022-10-17T06:21:36.411Z,16.14
2022-10-17T06:24:08.590Z,16.15
2022-10-17T06:26:36.980Z,16.17
2022-10-17T06:29:06.260Z,16.17
2022-10-17T06:31:36.355Z,16.20
2022-10-17T06:34:02.796Z,16.20
2022-10-17T06:36:29.779Z,16.22
2022-10-17T06:38:56.151Z,16.24
2022-10-17T06:41:29.854Z,16.25
2022-10-17T06:44:09.512Z,16.24
2022-10-17T06:46:59.013Z,16.26
2022-10-17T06:49:26.748Z,16.29
2022-10-17T06:52:19.283Z,16.34
2022-10-17T06:55:08.980Z,16.39
2022-10-17T06:57:51.678Z,16.40
2022-10-17T07:00:37.205Z,16.38
2022-10-17T07:03:03.988Z,16.43
2022-10-17T07:05:30.488Z,16.48
2022-10-17T07:07:56.880Z,16.53
2022-10-17T07:10:23.276Z,16.55
2022-10-17T07:12:49.842Z,16.58
2022-10-17T07:15:16.346Z,16.63
2022-10-17T07:17:42.931Z,16.66
2022-10-17T07:20:09.832Z,16.70
2022-10-17T07:22:37.851Z,16.77
2022-10-17T07:25:04.646Z,16.86
2022-10-17T07:27:38.379Z,16.99
2022-10-17T07:30:05.435Z,17.07
2022-10-17T07:32:55.032Z,17.21
2022-10-17T07:35:21.831Z,17.28
2022-10-17T07:37:48.490Z,17.36
2022-10-17T07:40:17.700Z,17.38
2022-10-17T07:42:44.243Z,17.40
2022-10-17T07:45:11.411Z,17.40
2022-10-17T07:47:38.036Z,17.42
2022-10-17T07:50:07.836Z,17.44
2022-10-17T07:52:34.636Z,17.46
2022-10-17T07:55:01.010Z,17.49
2022-10-17T07:57:27.494Z,17.55
2022-10-17T07:59:54.617Z,17.57
2022-10-17T08:02:24.512Z,17.67
2022-10-17T08:04:54.222Z,17.81
2022-10-17T08:07:24.368Z,18.02
2022-10-17T08:09:54.956Z,18.25
2022-10-17T08:12:22.004Z,18.40
2022-10-17T08:14:48.343Z,18.57
2022-10-17T08:17:14.877Z,18.64
2022-10-17T08:19:41.522Z,18.72
2022-10-17T08:22:08.164Z,18.85
2022-10-17T08:24:34.690Z,18.89
2022-10-17T08:27:01.338Z,18.86
2022-10-17T08:29:27.943Z,18.86
2022-10-17T08:31:58.669Z,18.90
2022-10-17T08:34:28.075Z,18.99
2022-10-17T08:36:54.644Z,19.04
2022-10-17T08:39:21.160Z,19.09
2022-10-17T08:41:56.834Z,19.18
2022-10-17T08:44:54.239Z,19.25
2022-10-17T08:47:29.423Z,19.35
2022-10-17T08:50:00.653Z,19.47
2022-10-17T08:52:38.437Z,19.57
2022-10-17T08:55:14.709Z,19.67
2022-10-17T08:57:41.212Z,19.74
2022-10-17T09:00:16.846Z,19.85
2022-10-17T09:03:06.858Z,19.90
2022-10-17T09:05:51.206Z,19.99
2022-10-17T09:08:29.902Z,20.05
2022-10-17T09:11:35.301Z,20.20
2022-10-17T09:14:08.418Z,20.43
2022-10-17T09:17:02.722Z,20.46
2022-10-17T09:19:34.407Z,20.57
2022-10-17T09:22:03.056Z,20.73
2022-10-17T09:24:46.318Z,20.91
2022-10-17T09:27:22.866Z,21.19
2022-10-17T09:29:54.595Z,21.45
2022-10-17T09:32:25.553Z,21.58
2022-10-17T09:34:53.683Z,21.65
2022-10-17T09:37:25.420Z,21.59
2022-10-17T09:39:52.223Z,21.44
2022-10-17T09:42:21.595Z,21.45
2022-10-17T09:45:19.318Z,21.51
2022-10-17T09:47:53.815Z,21.63
2022-10-17T09:50:28.082Z,21.77
2022-10-17T09:52:56.726Z,21.87
2022-10-17T09:55:42.820Z,22.11
2022-10-17T09:58:10.885Z,22.33
2022-10-17T10:00:41.447Z,22.50
2022-10-17T10:03:23.479Z,22.63
2022-10-17T10:06:01.836Z,22.76
2022-10-17T10:08:34.444Z,22.78
2022-10-17T10:11:13.380Z,22.83
2022-10-17T10:13:40.292Z,22.89
2022-10-17T10:16:20.142Z,23.15
2022-10-17T10:18:50.134Z,23.47
2022-10-17T10:21:20.987Z,23.57
2022-10-17T10:23:59.555Z,23.64
2022-10-17T10:26:44.992Z,23.72
2022-10-17T10:29:23.477Z,23.85
2022-10-17T10:31:51.328Z,24.06
2022-10-17T10:34:31.332Z,24.19
2022-10-17T10:37:01.994Z,24.28
2022-10-17T10:39:33.719Z,24.50
2022-10-17T10:42:02.526Z,24.91
2022-10-17T10:44:31.365Z,25.17
2022-10-17T10:47:30.417Z,25.04
2022-10-17T10:50:24.068Z,24.61
2022-10-17T10:52:56.325Z,24.15
2022-10-17T10:55:34.356Z,23.81
2022-10-17T10:58:06.439Z,23.51
2022-10-17T11:00:34.871Z,23.25
2022-10-17T11:03:18.661Z,23.01
2022-10-17T11:05:51.200Z,22.90
2022-10-17T11:08:32.784Z,22.78
2022-10-17T11:10:59.172Z,22.73
2022-10-17T11:13:31.852Z,22.67
2022-10-17T11:16:39.911Z,22.60
2022-10-17T11:19:25.101Z,22.58
2022-10-17T11:22:26.654Z,22.58
2022-10-17T11:25:04.760Z,22.60
2022-10-17T11:27:33.789Z,22.60
2022-10-17T11:30:00.380Z,22.63
2022-10-17T11:32:34.792Z,22.66
2022-10-17T11:35:14.758Z,22.68
2022-10-17T11:37:48.478Z,22.68
2022-10-17T11:40:23.612Z,22.75
2022-10-17T11:43:01.448Z,22.78
2022-10-17T11:45:35.009Z,22.89
2022-10-17T11:48:17.408Z,22.95
2022-10-17T11:53:50.876Z,23.09
2022-10-17T11:56:26.440Z,23.10
2022-10-17T11:59:07.722Z,23.05
2022-10-17T12:01:58.519Z,22.94
2022-10-17T12:05:01.652Z,22.81
2022-10-17T12:08:02.093Z,22.64
2022-10-17T12:10:45.635Z,22.43
2022-10-17T12:13:33.683Z,22.32
2022-10-17T12:16:37.513Z,22.23
2022-10-17T12:19:06.262Z,22.14
2022-10-17T12:21:55.519Z,21.97
2022-10-17T12:24:34.268Z,21.77
2022-10-17T12:27:28.998Z,21.61
2022-10-17T12:30:01.686Z,21.47
2022-10-17T12:32:36.755Z,21.39
2022-10-17T12:35:20.574Z,21.38
2022-10-17T12:37:55.230Z,21.38
2022-10-17T12:40:35.653Z,21.40
2022-10-17T12:43:28.223Z,21.48
2022-10-17T12:45:55.804Z,21.60
2022-10-17T12:48:34.496Z,21.59
2022-10-17T12:51:35.675Z,21.59
2022-10-17T12:54:14.918Z,21.63
2022-10-17T12:56:46.557Z,21.56
2022-10-17T12:59:25.852Z,21.46
2022-10-17T13:01:58.977Z,21.40
2022-10-17T13:04:27.525Z,21.31
2022-10-17T13:06:59.037Z,21.22
2022-10-17T13:09:33.202Z,21.20
2022-10-17T13:12:03.063Z,21.16
2022-10-17T13:14:31.531Z,21.13
2022-10-17T13:17:03.931Z,21.09
2022-10-17T13:19:40.005Z,21.01
2022-10-17T13:22:22.453Z,20.81
2022-10-17T13:24:50.843Z,20.42
2022-10-17T13:27:23.456Z,20.12
2022-10-17T13:29:50.002Z,20.01
2022-10-17T13:32:16.797Z,19.93
2022-10-17T13:34:43.356Z,19.84
2022-10-17T13:37:15.751Z,19.62
2022-10-17T13:39:55.223Z,19.50
2022-10-17T13:42:37.213Z,19.46
2022-10-17T13:45:04.236Z,19.50
2022-10-17T13:47:36.571Z,19.58
2022-10-17T13:50:09.431Z,19.61
2022-10-17T13:52:43.188Z,19.62
2022-10-17T13:55:17.458Z,19.60
2022-10-17T13:57:44.364Z,19.61
2022-10-17T14:00:21.645Z,19.53
2022-10-17T14:02:48.431Z,19.50
2022-10-17T14:05:20.321Z,19.49
2022-10-17T14:08:22.064Z,19.51
2022-10-17T14:10:49.183Z,19.59
2022-10-17T14:13:22.758Z,19.56
2022-10-17T14:15:50.225Z,19.53
2022-10-17T14:18:47.407Z,19.53
2022-10-17T14:21:40.476Z,19.58
2022-10-17T14:24:23.533Z,19.62
2022-10-17T14:26:52.623Z,19.66
2022-10-17T14:29:31.821Z,19.67
2022-10-17T14:32:02.032Z,19.66
2022-10-17T14:34:35.741Z,19.63
2022-10-17T14:37:08.450Z,19.64
2022-10-17T14:39:35.014Z,19.63
2022-10-17T14:42:04.444Z,19.58
2022-10-17T14:44:34.950Z,19.56
2022-10-17T14:47:30.393Z,19.57
2022-10-17T14:50:02.531Z,19.57
2022-10-17T14:52:30.617Z,19.55
2022-10-17T14:54:58.858Z,19.56
2022-10-17T14:57:29.332Z,19.53
2022-10-17T14:59:57.211Z,19.55
2022-10-17T15:02:29.247Z,19.57
2022-10-17T15:04:55.938Z,19.56
2022-10-17T15:07:23.669Z,19.56
2022-10-17T15:09:51.608Z,19.59
2022-10-17T15:12:25.615Z,19.59
2022-10-17T15:14:53.414Z,19.62
2022-10-17T15:17:33.008Z,19.59
2022-10-17T15:19:59.388Z,19.63
2022-10-17T15:22:26.681Z,19.57
2022-10-17T15:24:53.177Z,19.54
2022-10-17T15:27:22.979Z,19.55
2022-10-17T15:29:51.389Z,19.58
2022-10-17T15:32:17.748Z,19.56
2022-10-17T15:34:44.428Z,19.52
2022-10-17T15:37:18.685Z,19.51
2022-10-17T15:39:52.808Z,19.51
2022-10-17T15:42:20.336Z,19.50
2022-10-17T15:44:49.718Z,19.50
2022-10-17T15:47:34.133Z,19.42
2022-10-17T15:50:01.983Z,19.43
2022-10-17T15:52:28.561Z,19.46
2022-10-17T15:54:56.468Z,19.45
2022-10-17T15:57:28.678Z,19.42
2022-10-17T15:59:57.223Z,19.36
2022-10-17T16:02:24.089Z,19.36
2022-10-17T16:04:51.549Z,19.36
2022-10-17T16:07:21.732Z,19.28
2022-10-17T16:09:48.209Z,19.24
2022-10-17T16:14:49.748Z,19.25
2022-10-17T16:17:17.051Z,19.28
2022-10-17T16:19:43.533Z,19.32
2022-10-17T16:22:21.023Z,19.32
2022-10-17T16:24:47.375Z,19.33
2022-10-17T16:27:13.887Z,19.28
2022-10-17T16:29:40.359Z,19.28
2022-10-17T16:32:06.781Z,19.26
2022-10-17T16:34:35.948Z,19.26
2022-10-17T16:37:02.355Z,19.25
2022-10-17T16:39:28.746Z,19.24
2022-10-17T16:41:57.786Z,19.25
2022-10-17T16:44:25.291Z,19.27
2022-10-17T16:46:51.649Z,19.26
2022-10-17T16:49:18.244Z,19.26
2022-10-17T16:51:44.675Z,19.25
2022-10-17T16:54:11.211Z,19.22
2022-10-17T16:56:37.683Z,19.24
2022-10-17T16:59:10.534Z,19.24
2022-10-17T17:01:40.716Z,19.26
2022-10-17T17:04:10.256Z,19.25
2022-10-17T17:06:38.892Z,19.23
2022-10-17T17:09:09.693Z,19.23
2022-10-17T17:11:37.450Z,19.26
2022-10-17T17:14:05.157Z,19.29
2022-10-17T17:16:33.493Z,19.30
2022-10-17T17:19:05.635Z,19.29
2022-10-17T17:21:33.342Z,19.30
2022-10-17T17:24:01.497Z,19.31
2022-10-17T17:26:31.806Z,19.26
2022-10-17T17:29:00.420Z,19.25
2022-10-17T17:31:33.085Z,19.24
2022-10-17T17:34:00.279Z,19.27
2022-10-17T17:36:33.077Z,19.32
2022-10-17T17:39:01.418Z,19.30
2022-10-17T17:41:28.754Z,19.29
2022-10-17T17:44:12.461Z,19.30
2022-10-17T17:46:43.500Z,19.32
2022-10-17T17:49:12.629Z,19.35
2022-10-17T17:51:41.378Z,19.39
2022-10-17T17:54:11.620Z,19.39
2022-10-17T17:56:38.658Z,19.38
2022-10-17T17:59:05.624Z,19.40
2022-10-17T18:01:38.208Z,19.42
2022-10-17T18:04:08.566Z,19.47
2022-10-17T18:06:38.020Z,19.43
2022-10-17T18:09:06.012Z,19.36
2022-10-17T18:11:32.820Z,19.31
2022-10-17T18:14:03.983Z,19.27
2022-10-17T18:16:33.849Z,19.28
2022-10-17T18:19:08.138Z,19.27
2022-10-17T18:21:36.275Z,19.28
2022-10-17T18:24:07.555Z,19.32
2022-10-17T18:26:34.557Z,19.32
2022-10-17T18:29:01.549Z,19.38
2022-10-17T18:31:35.473Z,19.38
2022-10-17T18:34:03.251Z,19.32
2022-10-17T18:36:30.861Z,19.32
2022-10-17T18:38:58.867Z,19.31
2022-10-17T18:41:27.040Z,19.29
2022-10-17T18:43:56.823Z,19.26
2022-10-17T18:46:32.435Z,19.25
2022-10-17T18:48:58.926Z,19.29
2022-10-17T18:51:25.865Z,19.33
2022-10-17T18:53:54.757Z,19.33
2022-10-17T18:56:22.542Z,19.36
2022-10-17T18:58:48.966Z,19.37
2022-10-17T19:01:21.506Z,19.34
2022-10-17T19:03:49.981Z,19.31
2022-10-17T19:06:18.702Z,19.32
2022-10-17T19:08:45.581Z,19.34
2022-10-17T19:11:15.049Z,19.34
2022-10-17T19:13:42.336Z,19.33
2022-10-17T19:16:11.611Z,19.33
2022-10-17T19:18:38.145Z,19.39
2022-10-17T19:21:07.180Z,19.35
2022-10-17T19:23:35.956Z,19.38
2022-10-17T19:26:08.163Z,19.38
2022-10-17T19:28:36.006Z,19.42
2022-10-17T19:31:02.845Z,19.45
2022-10-17T19:33:30.887Z,19.41
2022-10-17T19:36:03.200Z,19.34
2022-10-17T19:38:29.696Z,19.34
2022-10-17T19:40:56.185Z,19.30
2022-10-17T19:43:22.974Z,19.21
2022-10-17T19:45:57.767Z,19.14
2022-10-17T19:48:33.464Z,19.13
2022-10-17T19:51:00.095Z,19.09
2022-10-17T19:53:29.620Z,19.05
2022-10-17T19:55:57.727Z,19.05
2022-10-17T19:58:25.827Z,19.02
2022-10-17T20:01:03.084Z,19.00
2022-10-17T20:03:29.679Z,18.91
2022-10-17T20:05:56.107Z,18.88
2022-10-17T20:08:22.704Z,18.84
2022-10-17T20:10:55.231Z,18.83
2022-10-17T20:13:21.676Z,18.79
2022-10-17T20:15:58.212Z,18.79
2022-10-17T20:18:25.686Z,18.80
2022-10-17T20:20:52.399Z,18.74
2022-10-17T20:23:18.839Z,18.71
2022-10-17T20:25:45.500Z,18.69
2022-10-17T20:28:11.871Z,18.64
2022-10-17T20:30:44.676Z,18.61
2022-10-17T20:33:14.127Z,18.57
2022-10-17T20:35:41.946Z,18.51
2022-10-17T20:38:08.762Z,18.42
2022-10-17T20:40:35.812Z,18.42
2022-10-17T20:43:07.076Z,18.44
2022-10-17T20:45:50.629Z,18.41
2022-10-17T20:48:18.071Z,18.36
2022-10-17T20:50:44.473Z,18.27
2022-10-17T20:53:35.521Z,18.30
2022-10-17T20:56:12.676Z,18.33
2022-10-17T20:58:39.433Z,18.31
2022-10-17T21:01:07.753Z,18.30
2022-10-17T21:03:37.829Z,18.24
2022-10-17T21:06:08.713Z,18.23
2022-10-17T21:08:35.499Z,18.26
2022-10-17T21:11:10.368Z,18.27
2022-10-17T21:13:37.353Z,18.30
2022-10-17T21:16:05.848Z,18.32
2022-10-17T21:18:32.206Z,18.30
2022-10-17T21:21:14.461Z,18.31
2022-10-17T21:23:42.785Z,18.29
2022-10-17T21:26:10.265Z,18.29
2022-10-17T21:28:37.355Z,18.24
2022-10-17T21:31:25.983Z,18.20
2022-10-17T21:33:55.673Z,18.19
2022-10-17T21:36:24.262Z,18.20
2022-10-17T21:38:52.256Z,18.10
2022-10-17T21:41:20.291Z,18.08
2022-10-17T21:43:55.371Z,17.99
2022-10-17T21:46:22.311Z,17.94
2022-10-17T21:48:49.395Z,17.88
2022-10-17T21:51:18.958Z,17.78
2022-10-17T21:53:45.602Z,17.73
2022-10-17T21:56:15.315Z,17.75
2022-10-17T21:58:43.333Z,17.76
2022-10-17T22:01:17.100Z,17.72
2022-10-17T22:03:46.848Z,17.74
2022-10-17T22:09:14.176Z,17.83
2022-10-17T22:11:41.160Z,17.79
2022-10-17T22:14:12.035Z,17.87
2022-10-17T22:16:38.627Z,17.93
2022-10-17T22:19:06.718Z,17.93
2022-10-17T22:21:35.493Z,17.95
2022-10-17T22:24:05.833Z,18.02
2022-10-17T22:26:34.287Z,18.08
2022-10-17T22:29:02.223Z,18.09
2022-10-17T22:31:28.655Z,18.05
2022-10-17T22:33:55.874Z,18.04
2022-10-17T22:36:22.664Z,18.01
2022-10-17T22:38:49.131Z,18.00
2022-10-17T22:41:15.609Z,18.07
2022-10-17T22:43:42.065Z,18.15
2022-10-17T22:46:09.849Z,18.20
2022-10-17T22:48:36.779Z,18.21
2022-10-17T22:51:03.317Z,18.13
2022-10-17T22:53:29.940Z,18.08
2022-10-17T22:56:00.053Z,18.08
2022-10-17T22:58:28.217Z,18.09
2022-10-17T23:00:55.066Z,18.11
2022-10-17T23:03:23.282Z,18.14
2022-10-17T23:05:51.347Z,18.16
2022-10-17T23:08:18.438Z,18.15
2022-10-17T23:10:45.899Z,18.17
2022-10-17T23:13:13.029Z,18.20
2022-10-17T23:15:39.431Z,18.22
2022-10-17T23:18:06.076Z,18.24
2022-10-17T23:20:32.710Z,18.26
2022-10-17T23:22:59.342Z,18.29
2022-10-17T23:25:25.984Z,18.33
2022-10-17T23:27:52.526Z,18.29
2022-10-17T23:30:19.015Z,18.27
2022-10-17T23:32:45.368Z,18.27
2022-10-17T23:35:12.246Z,18.24
2022-10-17T23:37:38.580Z,18.17
2022-10-17T23:40:06.132Z,18.18
2022-10-17T23:42:32.562Z,18.19
2022-10-17T23:44:59.012Z,18.18
2022-10-17T23:47:25.358Z,18.15
2022-10-17T23:49:51.873Z,18.12
2022-10-17T23:52:18.399Z,18.10
2022-10-17T23:54:44.884Z,18.08
2022-10-17T23:57:11.312Z,18.10
2022-10-17T23:59:37.666Z,18.09
